createdAt,value
2023-02-22T00:00:01.629Z,10.80
2023-02-22T00:05:06.440Z,10.76
2023-02-22T00:10:13.348Z,10.73
2023-02-22T00:15:17.537Z,10.52
2023-02-22T00:20:19.903Z,10.32
2023-02-22T00:25:24.183Z,10.22
2023-02-22T00:30:28.990Z,9.93
2023-02-22T00:35:31.483Z,9.88
2023-02-22T00:40:34.719Z,9.70
2023-02-22T00:45:37.433Z,9.25
2023-02-22T00:50:39.352Z,9.18
2023-02-22T00:55:41.451Z,9.19
2023-02-22T01:00:43.464Z,9.17
2023-02-22T01:05:45.620Z,9.09
2023-02-22T01:10:47.867Z,8.89
2023-02-22T01:15:50.007Z,8.79
2023-02-22T01:20:51.832Z,8.81
2023-02-22T01:25:54.108Z,8.76
2023-02-22T01:30:56.299Z,8.72
2023-02-22T01:36:00.032Z,8.74
2023-02-22T01:41:02.546Z,8.74
2023-02-22T01:46:06.482Z,8.70
2023-02-22T01:51:17.677Z,8.60
2023-02-22T01:56:22.184Z,8.54
2023-02-22T02:01:26.119Z,8.49
2023-02-22T02:06:32.209Z,8.42
2023-02-22T02:11:35.130Z,8.36
2023-02-22T02:16:50.292Z,8.16
2023-02-22T02:22:27.046Z,7.54
2023-02-22T02:27:54.995Z,7.60
2023-02-22T02:33:00.209Z,7.48
2023-02-22T02:38:30.626Z,7.42
2023-02-22T02:43:35.209Z,7.58
2023-02-22T02:48:41.800Z,7.68
2023-02-22T02:53:47.426Z,7.86
2023-02-22T02:58:52.744Z,7.91
2023-02-22T03:04:17.328Z,8.03
2023-02-22T03:09:35.613Z,8.09
2023-02-22T03:14:56.026Z,8.25
2023-02-22T03:20:09.743Z,8.37
2023-02-22T03:25:22.482Z,8.42
2023-02-22T03:30:37.815Z,8.49
2023-02-22T03:35:49.246Z,8.55
2023-02-22T03:40:54.788Z,8.63
2023-02-22T03:45:58.640Z,8.56
2023-02-22T03:51:04.393Z,8.35
2023-02-22T03:56:10.475Z,8.41
2023-02-22T04:01:13.490Z,8.51
2023-02-22T04:06:15.354Z,8.54
2023-02-22T04:11:18.887Z,8.58
2023-02-22T04:16:20.696Z,8.69
2023-02-22T04:21:22.817Z,8.69
2023-02-22T04:26:25.839Z,8.72
2023-02-22T04:31:31.811Z,8.65
2023-02-22T04:36:33.956Z,8.77
2023-02-22T04:41:36.050Z,8.81
2023-02-22T04:46:38.216Z,8.77
2023-02-22T04:51:41.204Z,8.62
2023-02-22T04:56:45.964Z,8.68
2023-02-22T05:01:47.751Z,8.78
2023-02-22T05:06:49.452Z,8.84
2023-02-22T05:11:51.039Z,8.89
2023-02-22T05:16:57.645Z,8.92
2023-02-22T05:21:59.754Z,9.00
2023-02-22T05:27:01.462Z,9.05
2023-02-22T05:32:03.166Z,9.14
2023-02-22T05:37:05.260Z,9.23
2023-02-22T05:42:07.129Z,9.29
2023-02-22T05:47:08.788Z,9.29
2023-02-22T05:52:10.412Z,9.33
2023-02-22T05:57:12.281Z,9.32
2023-02-22T06:02:14.098Z,9.33
2023-02-22T06:07:16.252Z,9.38
2023-02-22T06:12:17.933Z,9.38
2023-02-22T06:17:20.642Z,9.43
2023-02-22T06:22:22.523Z,9.46
2023-02-22T06:27:24.135Z,9.49
2023-02-22T06:32:26.377Z,9.52
2023-02-22T06:37:28.207Z,9.57
2023-02-22T06:42:29.896Z,9.64
2023-02-22T06:47:31.496Z,9.72
2023-02-22T06:52:33.148Z,9.75
2023-02-22T06:57:34.724Z,9.75
2023-02-22T07:02:37.228Z,9.82
2023-02-22T07:07:39.694Z,9.90
2023-02-22T07:12:41.327Z,9.98
2023-02-22T07:17:42.927Z,10.09
2023-02-22T07:22:44.535Z,10.22
2023-02-22T07:27:47.282Z,10.43
2023-02-22T07:32:48.969Z,10.65
2023-02-22T07:37:50.772Z,10.92
2023-02-22T07:43:06.593Z,11.08
2023-02-22T07:48:09.361Z,11.14
2023-02-22T07:53:15.098Z,11.14
2023-02-22T07:58:19.495Z,11.29
2023-02-22T08:03:23.749Z,11.44
2023-02-22T08:08:25.433Z,11.50
2023-02-22T08:13:27.246Z,11.65
2023-02-22T08:18:28.888Z,11.70
2023-02-22T08:23:31.645Z,11.90
2023-02-22T08:28:33.288Z,12.05
2023-02-22T08:33:35.582Z,12.31
2023-02-22T08:38:37.774Z,12.64
2023-02-22T08:43:39.421Z,12.90
2023-02-22T08:48:50.746Z,13.10
2023-02-22T08:53:53.596Z,13.35
2023-02-22T08:58:55.955Z,13.53
2023-02-22T09:03:57.799Z,13.81
2023-02-22T09:08:59.467Z,13.88
2023-02-22T09:14:01.060Z,14.02
2023-02-22T09:19:02.669Z,14.14
2023-02-22T09:24:08.471Z,14.12
2023-02-22T09:29:10.547Z,14.18
2023-02-22T09:34:15.736Z,14.13
2023-02-22T09:39:17.888Z,14.25
2023-02-22T09:44:28.995Z,14.27
2023-02-22T09:49:57.450Z,14.49
2023-02-22T09:55:23.256Z,14.79
2023-02-22T10:00:33.760Z,14.91
2023-02-22T10:05:42.917Z,15.11
2023-02-22T10:10:46.236Z,15.29
2023-02-22T10:16:03.196Z,15.38
2023-02-22T10:21:31.611Z,15.52
2023-02-22T10:26:36.624Z,15.57
2023-02-22T10:31:46.187Z,15.72
2023-02-22T10:36:51.275Z,15.84
2023-02-22T10:41:57.272Z,15.88
2023-02-22T10:47:01.677Z,15.78
2023-02-22T10:52:12.819Z,15.91
2023-02-22T10:57:18.468Z,15.94
2023-02-22T11:02:31.861Z,16.06
2023-02-22T11:07:36.193Z,16.23
2023-02-22T11:12:41.603Z,16.25
2023-02-22T11:17:46.210Z,16.35
2023-02-22T11:22:54.632Z,16.57
2023-02-22T11:28:11.113Z,16.56
2023-02-22T11:33:15.716Z,16.71
2023-02-22T11:38:31.241Z,16.89
2023-02-22T11:43:32.869Z,17.06
2023-02-22T11:48:40.122Z,17.02
2023-02-22T11:54:00.923Z,17.11
2023-02-22T11:59:30.476Z,16.79
2023-02-22T12:04:50.427Z,17.25
2023-02-22T12:10:18.509Z,17.07
2023-02-22T12:15:36.881Z,16.78
2023-02-22T12:20:56.807Z,17.02
2023-02-22T12:26:08.309Z,16.98
2023-02-22T12:31:20.268Z,16.42
2023-02-22T12:36:28.236Z,16.41
2023-02-22T12:41:54.489Z,16.17
2023-02-22T12:46:58.377Z,16.73
2023-02-22T12:52:21.921Z,17.04
2023-02-22T12:57:33.868Z,17.11
2023-02-22T13:02:40.152Z,16.75
2023-02-22T13:07:57.023Z,16.73
2023-02-22T13:13:11.238Z,16.50
2023-02-22T13:18:18.386Z,16.71
2023-02-22T13:23:46.059Z,16.57
2023-02-22T13:29:09.264Z,16.71
2023-02-22T13:34:40.320Z,16.64
2023-02-22T13:40:03.477Z,16.69
2023-02-22T13:45:39.194Z,16.61
2023-02-22T13:51:02.409Z,16.52
2023-02-22T13:56:04.536Z,16.56
2023-02-22T14:01:06.159Z,16.50
2023-02-22T14:06:37.083Z,16.30
2023-02-22T14:11:43.143Z,16.28
2023-02-22T14:16:45.461Z,16.28
2023-02-22T14:22:07.396Z,16.26
2023-02-22T14:27:10.692Z,16.04
2023-02-22T14:32:15.072Z,15.88
2023-02-22T14:37:24.921Z,15.73
2023-02-22T14:42:34.689Z,15.49
2023-02-22T14:47:43.902Z,15.49
2023-02-22T14:52:47.532Z,15.37
2023-02-22T14:58:11.026Z,15.14
2023-02-22T15:03:32.987Z,15.03
2023-02-22T15:08:34.691Z,15.01
2023-02-22T15:13:36.308Z,14.98
2023-02-22T15:18:42.319Z,14.75
2023-02-22T15:23:47.068Z,14.63
2023-02-22T15:28:54.380Z,14.54
2023-02-22T15:33:56.595Z,14.48
2023-02-22T15:38:58.777Z,14.40
2023-02-22T15:44:17.815Z,14.26
2023-02-22T15:49:24.821Z,14.05
2023-02-22T15:54:28.049Z,13.82
2023-02-22T15:59:33.791Z,13.63
2023-02-22T16:04:35.865Z,13.44
2023-02-22T16:09:37.748Z,13.26
2023-02-22T16:14:44.948Z,13.08
2023-02-22T16:19:50.336Z,12.86
2023-02-22T16:24:54.583Z,12.73
2023-02-22T16:30:22.188Z,12.60
2023-02-22T16:35:28.797Z,12.42
2023-02-22T16:40:34.568Z,12.24
2023-02-22T16:45:36.300Z,12.12
2023-02-22T16:50:37.985Z,12.00
2023-02-22T16:55:44.718Z,11.87
2023-02-22T17:00:46.432Z,11.74
2023-02-22T17:05:48.085Z,11.66
2023-02-22T17:10:51.791Z,11.58
2023-02-22T17:15:56.550Z,11.47
2023-02-22T17:20:58.109Z,11.39
2023-02-22T17:26:04.635Z,11.34
2023-02-22T17:31:07.176Z,11.24
2023-02-22T17:36:08.863Z,11.12
2023-02-22T17:41:10.667Z,11.02
2023-02-22T17:46:12.551Z,10.96
2023-02-22T17:51:14.353Z,10.86
2023-02-22T17:56:20.813Z,10.78
2023-02-22T18:01:28.736Z,10.67
2023-02-22T18:06:32.735Z,10.59
2023-02-22T18:11:34.435Z,10.40
2023-02-22T18:16:38.896Z,10.24
2023-02-22T18:21:40.727Z,10.10
2023-02-22T18:26:42.520Z,10.00
2023-02-22T18:31:45.483Z,9.94
2023-02-22T18:36:48.628Z,9.82
2023-02-22T18:41:50.425Z,9.75
2023-02-22T18:46:53.527Z,9.65
2023-02-22T18:51:55.122Z,9.70
2023-02-22T18:56:56.963Z,9.71
2023-02-22T19:01:58.740Z,9.68
2023-02-22T19:07:00.352Z,9.62
2023-02-22T19:12:02.403Z,9.44
2023-02-22T19:17:07.322Z,9.38
2023-02-22T19:22:09.372Z,9.36
2023-02-22T19:27:11.927Z,9.30
2023-02-22T19:32:13.763Z,9.09
2023-02-22T19:37:18.753Z,8.78
2023-02-22T19:42:20.401Z,8.62
2023-02-22T19:47:22.620Z,8.59
2023-02-22T19:52:24.278Z,8.50
2023-02-22T19:57:26.773Z,8.24
2023-02-22T20:02:28.456Z,8.11
2023-02-22T20:07:30.033Z,7.99
2023-02-22T20:12:31.750Z,7.80
2023-02-22T20:17:33.866Z,7.68
2023-02-22T20:22:35.672Z,7.69
2023-02-22T20:27:37.603Z,7.69
2023-02-22T20:32:39.662Z,7.70
2023-02-22T20:37:42.595Z,7.81
2023-02-22T20:42:44.584Z,7.78
2023-02-22T20:47:46.211Z,7.88
2023-02-22T20:52:47.794Z,7.89
2023-02-22T20:57:49.433Z,7.87
2023-02-22T21:02:51.515Z,7.81
2023-02-22T21:07:53.855Z,7.80
2023-02-22T21:12:56.971Z,7.78
2023-02-22T21:18:00.436Z,7.69
2023-02-22T21:23:02.960Z,7.69
2023-02-22T21:28:05.456Z,7.60
2023-02-22T21:33:07.068Z,7.41
2023-02-22T21:38:14.550Z,7.19
2023-02-22T21:43:16.629Z,7.07
2023-02-22T21:48:18.191Z,7.04
2023-02-22T21:53:20.287Z,7.12
2023-02-22T21:58:22.478Z,7.12
2023-02-22T22:03:24.526Z,7.11
2023-02-22T22:08:27.996Z,7.06
2023-02-22T22:13:29.567Z,6.77
2023-02-22T22:18:31.158Z,6.69
2023-02-22T22:23:33.209Z,6.75
2023-02-22T22:28:35.620Z,6.76
2023-02-22T22:33:37.795Z,6.66
2023-02-22T22:38:39.439Z,6.47
2023-02-22T22:43:46.034Z,6.44
2023-02-22T22:48:48.077Z,6.26
2023-02-22T22:53:51.014Z,6.25
2023-02-22T22:58:55.544Z,6.27
2023-02-22T23:04:02.081Z,6.25
2023-02-22T23:09:13.819Z,6.26
2023-02-22T23:14:21.223Z,6.24
2023-02-22T23:19:22.818Z,6.21
2023-02-22T23:24:27.524Z,6.15
2023-02-22T23:29:29.981Z,6.08
2023-02-22T23:34:31.935Z,5.98
2023-02-22T23:39:33.544Z,5.89
2023-02-22T23:44:35.338Z,5.78
2023-02-22T23:49:38.479Z,5.83
2023-02-22T23:54:43.878Z,5.85
2023-02-22T23:59:46.394Z,5.93
